S&P 500   4,544.90
DOW   35,677.02
QQQ   374.10
S&P 500   4,544.90
DOW   35,677.02
QQQ   374.10
S&P 500   4,544.90
DOW   35,677.02
QQQ   374.10
S&P 500   4,544.90
DOW   35,677.02
QQQ   374.10

Facebook Institutional Ownership

$324.61
-17.27 (-5.05 %)
(As of 10/22/2021 12:00 AM ET)
Add
Compare
Today's Range
$321.11
$329.63
50-Day Range
$323.77
$382.18
52-Week Range
$244.61
$384.33
Volume35.22 million shs
Average Volume17.91 million shs
Market Capitalization$915.22 billion
P/E Ratio24.05
Dividend YieldN/A
Beta1.32

Institutional Ownership Changes (13F Filings) for Facebook (NASDAQ:FB)

Institutional Ownership Percentage: 65.72%
Skip Chart & View Institutional Buying and Selling Data

Institutional Buying and Selling by Quarter


Facebook (NASDAQ FB) Institutional Buying and Selling

Reporting DateHedge FundShares HeldMarket Value% of PortfolioQuarterly Change in SharesOwnership in CompanyDetails
10/22/2021Private Advisory Group LLC30,480$10.35M2.5%-2.5%0.001%
10/22/2021Relyea Zuckerberg Hanson LLC1,661$0.56M0.2%+47.5%0.000%
10/22/2021Franklin Street Advisors Inc. NC80,620$27.36M2.3%+1.8%0.003%
10/22/2021Optimum Investment Advisors8,317$2.82M1.2%-38.3%0.000%
10/22/2021Ferguson Wellman Capital Management Inc.177,544$60.26M1.9%+0.9%0.006%
10/22/2021Lineweaver Wealth Advisors LLC2,635$0.89M0.3%+3.3%0.000%
10/22/2021PDS Planning Inc4,781$1.62M0.4%+49.5%0.000%
10/22/2021Cadence Bank NA6,534$2.22M0.7%+11.5%0.000%
10/22/2021Global Retirement Partners LLC7,644$2.59M0.3%+4.2%0.000%
10/22/2021Tompkins Financial Corp1,297$0.44M0.1%N/A0.000%
10/22/2021Culbertson A N & Co Inc1,430$0.49M0.1%-17.3%0.000%
10/22/2021Trust Co. of Vermont38,440$13.05M0.9%+0.2%0.001%
10/22/2021James Investment Research Inc.38,298$13M1.2%+10.9%0.001%
10/22/2021Redmond Asset Management LLC8,047$2.73M0.9%-0.8%0.000%
10/22/2021Lederer & Associates Investment Counsel CA10,667$3.62M2.3%-0.6%0.000%
10/22/2021Spire Wealth Management125,833$42.67M1.1%+2.8%0.004%
10/22/2021AMI Asset Management Corp132,667$45.03M2.3%-5.1%0.005%
10/22/2021Patten & Patten Inc. TN2,503$0.85M0.1%+67.2%0.000%
10/22/2021Accurate Wealth Management LLC3,089$1.04M0.9%+11.8%0.000%
10/22/2021Beck Bode LLC40,780$13.84M3.9%+1.0%0.001%
10/22/2021D.B. Root & Company LLC6,776$2.30M0.9%-15.7%0.000%
10/22/2021Strs Ohio1,660,548$563.57M2.1%-7.1%0.059%
10/22/2021Allen Capital Group LLC6,799$2.31M0.5%+5.5%0.000%
10/22/2021Milestone Resources Group Ltd385,476$130.83M5.9%+3.7%0.014%
10/22/2021Tatro Capital LLC604$0.21M0.2%-79.3%0.000%
10/22/2021MTM Investment Management LLC829$0.28M0.2%+8.5%0.000%
10/22/2021DekaBank Deutsche Girozentrale1,521,886$520.65M1.5%+2.7%0.054%
10/22/2021YorkBridge Wealth Partners LLC37,810$12.83M3.2%+3.4%0.001%
10/22/2021Morris Capital Advisors LLC2,562$0.87M0.7%-7.0%0.000%
10/22/2021Plimoth Trust Co. LLC12,451$4.23M1.2%-2.0%0.000%
10/22/2021PGGM Investments425,872$144.54M0.7%+44.1%0.015%
10/22/2021Arbor Investment Advisors LLC4,075$1.38M0.3%+1.2%0.000%
10/22/2021Echo Wealth Management LLC1,806$0.60M0.7%-2.6%0.000%
10/22/2021Western Financial Corporation1,449$0.49M0.3%+8.5%0.000%
10/22/2021Narwhal Capital Management47,861$16.24M2.0%+9.6%0.002%
10/22/2021Gateway Investment Advisers LLC670,680$227.62M2.4%-1.8%0.024%
10/22/2021Sarasin & Partners LLP210,919$71.58M0.7%+36.2%0.007%
10/22/2021Murphy Capital Management Inc.58,243$19.77M2.3%-0.5%0.002%
10/21/2021Hanson & Doremus Investment Management632$0.21M0.0%+12.5%0.000%
10/21/2021TFG Advisers LLC2,191$0.74M0.4%+6.3%0.000%
10/21/2021Total Clarity Wealth Management Inc.662$0.23M0.1%N/A0.000%
10/21/2021Valley Brook Capital Group Inc.2,669$0.91M0.9%+2.9%0.000%
10/21/2021Boenning & Scattergood Inc.7,691$2.61M0.5%-0.8%0.000%
10/21/2021Farmers & Merchants Investments Inc.3,101$1.05M0.0%+10.9%0.000%
10/21/2021Jag Capital Management LLC94,163$31.96M2.5%-0.6%0.003%
10/21/2021Selway Asset Management9,330$3.17M1.7%-3.1%0.000%
10/21/2021Palouse Capital Management Inc.5,948$2.02M0.9%-1.9%0.000%
10/21/2021Foresight Wealth Management LLC3,997$1.36M0.3%-2.9%0.000%
10/21/2021Strategic Advisors LLC29,926$10.16M2.2%+22.8%0.001%
10/21/2021Lloyd Advisory Services LLC.182$62K0.0%-21.6%0.000%
10/21/2021Founders Capital Management LLC37,563$12.75M3.2%+10.1%0.001%
10/21/2021V Wealth Advisors LLC7,960$2.70M0.4%-7.5%0.000%
10/21/2021Schwarz Dygos Wheeler Investment Advisors LLC13,737$4.66M1.7%+10.2%0.000%
10/21/2021Park Avenue Securities LLC40,346$13.69M0.3%+6.9%0.001%
10/21/2021LS Investment Advisors LLC37,991$12.89M1.7%-1.1%0.001%
10/21/2021First American Trust FSB41,742$14.17M2.1%+6.2%0.001%
10/21/2021Great Diamond Partners LLC5,161$1.75M0.5%+0.7%0.000%
10/21/2021Fulcrum Capital LLC22,046$7.48M1.8%+1.7%0.001%
10/21/2021Aaron Wealth Advisors LLC3,396$1.15M0.3%+2.7%0.000%
10/21/2021United Bank4,887$1.70M0.2%+17.7%0.000%
10/21/2021Sound View Wealth Advisors Group LLC5,452$1.85M0.4%+3.6%0.000%
10/21/2021Kestra Private Wealth Services LLC71,346$24.21M1.4%+3.0%0.003%
10/21/2021Cabot Wealth Management Inc.9,558$3.24M0.4%+23.2%0.000%
10/21/2021Bowling Portfolio Management LLC29,267$9.93M2.2%-0.6%0.001%
10/21/2021Regent Investment Management LLC42,425$14.40M3.4%-7.1%0.002%
10/21/2021Highland Private Wealth Management7,982$2.71M0.4%+14.4%0.000%
10/21/2021Slow Capital Inc.7,239$2.46M0.5%-0.5%0.000%
10/21/2021Bellecapital International Ltd.18,198$6.18M1.9%+2.0%0.001%
10/21/2021Cooper Haims Advisors LLC2,980$1.01M0.6%-5.4%0.000%
10/21/2021Ellis Investment Partners LLC966$0.33M0.1%+34.9%0.000%
10/21/2021Essex LLC3,781$1.28M0.4%N/A0.000%
10/21/2021Covenant Multifamily Offices LLC2,510$0.84M0.2%-6.2%0.000%
10/21/2021S.E.E.D. Planning Group LLC14,257$4.84M2.3%-9.1%0.001%
10/21/2021Douglas Lane & Associates LLC260,861$88.53M1.3%+1.7%0.009%
10/21/2021Hotaling Investment Management LLC8,742$2.97M1.2%+2.3%0.000%
10/21/2021Gateway Advisory LLC1,378$0.47M0.1%N/A0.000%
10/21/2021Wesleyan Assurance Society65,655$22.27M2.8%+14.0%0.002%
10/21/2021Everence Capital Management Inc.59,345$20.14M1.7%-1.7%0.002%
10/21/2021Crossmark Global Holdings Inc.137,316$46.60M1.0%+2.3%0.005%
10/21/2021Boyd Watterson Asset Management LLC OH4,532$1.54M0.6%-31.5%0.000%
10/21/2021SkyOak Wealth LLC18,280$6.20M1.7%-1.5%0.001%
10/21/2021Xcel Wealth Management LLC13,245$4.50M1.3%+4.7%0.000%
10/21/2021Arrow Financial Corp14,478$4.91M0.6%-1.8%0.001%
10/21/2021United Asset Strategies Inc.46,155$15.67M2.0%+10.5%0.002%
10/21/2021Joel Isaacson & Co. LLC52,631$17.86M1.3%-1.1%0.002%
10/21/2021Avantax Advisory Services Inc.35,262$11.97M0.2%+6.2%0.001%
10/21/2021Bridgeworth LLC1,118$0.38M0.1%+40.1%0.000%
10/21/20211776 Wealth LLC4,285$1.45M0.8%-7.0%0.000%
10/21/2021Virginia Retirement Systems ET AL483,700$164.16M1.7%-5.1%0.017%
10/20/2021WP Advisors LLC42,480$14.42M5.9%+2.3%0.002%
10/20/2021ProVise Management Group LLC13,624$4.62M0.5%+0.3%0.000%
10/20/2021Onyx Bridge Wealth Group LLC1,528$0.51M0.2%+13.8%0.000%
10/20/2021Royal Fund Management LLC9,340$3.17M0.5%+11.1%0.000%
10/20/2021Venture Visionary Partners LLC36,040$12.24M0.9%+24.8%0.001%
10/20/2021North Star Investment Management Corp.12,861$4.37M0.4%+0.3%0.000%
10/20/2021Patriot Investment Management Inc.1,220$0.41M0.0%+24.4%0.000%
10/20/2021Clarity Wealth Advisors LLC7,710$2.62M1.3%+7.8%0.000%
10/20/2021Beaumont Asset Management L.L.C.5,831$1.98M1.5%+3.1%0.000%
10/20/2021Mount Vernon Associates Inc. MD13,214$4.49M4.1%+1.7%0.000%
10/20/2021Baltimore Washington Financial Advisors Inc.62,044$21.06M1.9%+2.8%0.002%
(Data available from 1/1/2016 forward)













Facebook (NASDAQ:FB) Institutional Ownership Frequently Asked Questions

Who are the institutional owners of Facebook?

During the previous two years, 3,434 institutional investors and hedge funds held shares of Facebook. The most heavily invested institutionals were Border to Coast Pensions Partnership Ltd ($144.64B), Vanguard Group Inc. ($63.45B), FMR LLC ($44.20B), BlackRock Inc. ($43.61B), Price T Rowe Associates Inc. MD ($35.26B), State Street Corp ($32.06B), and Capital International Investors ($16.97B).Learn more on FB's institutional investors

What percentage of Facebook stock is owned by institutional investors?

65.72% of Facebook stock is owned by institutional investors. Learn more on FB's institutional investor holdings

Which institutional investors have been buying Facebook stock?

Of the 3,074 institutional investors that purchased Facebook stock in the last 24 months, the following investors and hedge funds have bought the highest volume of shares: Norges Bank ($55.82M), Morgan Stanley ($10.87M), SB Management Ltd ($8.49M), Capital International Investors ($7.28M), Itau Unibanco Holding S.A. ($7.25M), FMR LLC ($6.12M), and Sanders Capital LLC ($5.96M).

How much institutional buying is happening at Facebook?

Institutional investors have bought a total of 356,445,214 shares in the last 24 months. This purchase volume represents approximately $229.10B in transactions.

Which Facebook institutionals have been selling company stock?

Of the 2,374 institutional investors that sold Facebook stock in the last 24 months, the following investors and hedge funds have sold the highest volume of shares: Morgan Stanley ($8.04M), Capital World Investors ($6.27M), Jennison Associates LLC ($5.24M), Nuveen Asset Management LLC ($4.50M), Viking Global Investors LP ($4.35M), Baillie Gifford & Co. ($3.83M), and Magellan Asset Management Ltd ($3.68M).

How much institutional selling is happening at Facebook?

Institutional investors have sold a total of 195,984,592 shares in the last 24 months. This volume of shares sold represents approximately $60.23B in transactions.

This page was last updated on 10/25/2021 by MarketBeat.com Staff

Resources

Premium Research Tools

MarketBeat All Access subscribers can access stock screeners, the Idea Engine, data export tools, research reports, and other premium tools.

Discover All Access

Market Data and Calendars

Looking for new stock ideas? Want to see which stocks are moving? View our full suite of financial calendars and market data tables, all for free.

View Market Data

Investing Education and Resources

Receive a free world-class investing education from MarketBeat. Learn about financial terms, types of investments, trading strategies and more.

Financial Terms
Details Here
MarketBeat - Stock Market News and Research Tools logo

MarketBeat empowers individual investors to make better trading decisions by providing real-time financial data and objective market analysis. Whether you’re looking for analyst ratings, corporate buybacks, dividends, earnings, economic reports, financials, insider trades, IPOs, SEC filings or stock splits, MarketBeat has the objective information you need to analyze any stock. Learn more about MarketBeat.

MarketBeat is accredited by the Better Business Bureau

© American Consumer News, LLC dba MarketBeat® 2010-2021. All rights reserved.
326 E 8th St #105, Sioux Falls, SD 57103 | U.S. Based Support Team at [email protected] | (844) 978-6257
MarketBeat does not provide personalized financial advice and does not issue recommendations or offers to buy stock or sell any security.

Our Accessibility Statement | Terms of Service | Do Not Sell My Information

© 2021 Market data provided is at least 10-minutes delayed and hosted by Barchart Solutions. Information is provided 'as-is' and solely for informational purposes, not for trading purposes or advice, and is delayed. To see all exchange delays and terms of use please see disclaimer. Fundamental company data provided by Zacks Investment Research.